sensor_id;sensor_type;location;lat;lon;timestamp;pressure;altitude;pressure_sealevel;temperature;humidity
22241;BME280;11289;52.524;13.694;2023-04-21T00:00:01;101420.03;;;10.23;74.55
22241;BME280;11289;52.524;13.694;2023-04-21T00:02:27;101415.72;;;10.17;74.09
22241;BME280;11289;52.524;13.694;2023-04-21T00:04:53;101394.03;;;10.05;74.70
22241;BME280;11289;52.524;13.694;2023-04-21T00:07:21;101396.59;;;10.01;74.38
22241;BME280;11289;52.524;13.694;2023-04-21T00:09:47;101395.78;;;10.01;74.39
22241;BME280;11289;52.524;13.694;2023-04-21T00:12:13;101390.97;;;9.92;74.65
22241;BME280;11289;52.524;13.694;2023-04-21T00:14:39;101409.13;;;9.99;74.77
22241;BME280;11289;52.524;13.694;2023-04-21T00:17:05;101403.69;;;9.93;74.88
22241;BME280;11289;52.524;13.694;2023-04-21T00:19:31;101397.22;;;9.84;74.99
22241;BME280;11289;52.524;13.694;2023-04-21T00:21:57;101407.69;;;9.87;74.83
22241;BME280;11289;52.524;13.694;2023-04-21T00:24:26;101381.78;;;9.64;75.20
22241;BME280;11289;52.524;13.694;2023-04-21T00:26:52;101395.75;;;9.73;75.42
22241;BME280;11289;52.524;13.694;2023-04-21T00:29:18;101405.34;;;9.81;75.30
22241;BME280;11289;52.524;13.694;2023-04-21T00:31:44;101399.97;;;9.70;75.63
22241;BME280;11289;52.524;13.694;2023-04-21T00:34:10;101396.78;;;9.63;75.44
22241;BME280;11289;52.524;13.694;2023-04-21T00:36:36;101381.16;;;9.53;75.30
22241;BME280;11289;52.524;13.694;2023-04-21T00:39:02;101402.31;;;9.63;75.53
22241;BME280;11289;52.524;13.694;2023-04-21T00:41:29;101398.81;;;9.57;75.55
22241;BME280;11289;52.524;13.694;2023-04-21T00:44:05;101402.31;;;9.63;75.31
22241;BME280;11289;52.524;13.694;2023-04-21T00:46:32;101388.97;;;9.51;75.50
22241;BME280;11289;52.524;13.694;2023-04-21T00:49:00;101394.50;;;9.51;75.54
22241;BME280;11289;52.524;13.694;2023-04-21T00:51:28;101404.38;;;9.57;75.39
22241;BME280;11289;52.524;13.694;2023-04-21T00:53:55;101397.78;;;9.53;75.32
22241;BME280;11289;52.524;13.694;2023-04-21T00:56:22;101392.84;;;9.50;75.28
22241;BME280;11289;52.524;13.694;2023-04-21T00:58:47;101368.78;;;9.32;75.44
22241;BME280;11289;52.524;13.694;2023-04-21T01:01:14;101392.94;;;9.45;75.20
22241;BME280;11289;52.524;13.694;2023-04-21T01:03:40;101395.69;;;9.45;75.43
22241;BME280;11289;52.524;13.694;2023-04-21T01:06:07;101393.97;;;9.49;75.13
22241;BME280;11289;52.524;13.694;2023-04-21T01:08:33;101399.81;;;9.48;75.30
22241;BME280;11289;52.524;13.694;2023-04-21T01:11:08;101372.66;;;9.31;75.04
22241;BME280;11289;52.524;13.694;2023-04-21T01:13:34;101387.50;;;9.40;74.96
22241;BME280;11289;52.524;13.694;2023-04-21T01:16:00;101393.84;;;9.40;75.15
22241;BME280;11289;52.524;13.694;2023-04-21T01:18:26;101397.97;;;9.43;74.94
22241;BME280;11289;52.524;13.694;2023-04-21T01:20:52;101388.09;;;9.37;74.83
22241;BME280;11289;52.524;13.694;2023-04-21T01:23:18;101387.81;;;9.38;74.67
22241;BME280;11289;52.524;13.694;2023-04-21T01:25:45;101393.09;;;9.35;74.82
22241;BME280;11289;52.524;13.694;2023-04-21T01:28:12;101385.41;;;9.32;74.62
22241;BME280;11289;52.524;13.694;2023-04-21T01:30:38;101389.84;;;9.33;74.57
22241;BME280;11289;52.524;13.694;2023-04-21T01:33:08;101360.31;;;9.09;74.63
22241;BME280;11289;52.524;13.694;2023-04-21T01:35:35;101349.81;;;9.06;74.52
22241;BME280;11289;52.524;13.694;2023-04-21T01:38:04;101387.53;;;9.21;74.40
22241;BME280;11289;52.524;13.694;2023-04-21T01:40:36;101385.16;;;9.14;74.58
22241;BME280;11289;52.524;13.694;2023-04-21T01:43:04;101367.88;;;9.03;74.50
22241;BME280;11289;52.524;13.694;2023-04-21T01:45:31;101387.31;;;9.17;74.57
22241;BME280;11289;52.524;13.694;2023-04-21T01:47:58;101386.81;;;9.15;74.64
22241;BME280;11289;52.524;13.694;2023-04-21T01:50:26;101374.69;;;9.11;74.47
22241;BME280;11289;52.524;13.694;2023-04-21T01:52:52;101365.72;;;9.00;74.37
22241;BME280;11289;52.524;13.694;2023-04-21T01:55:18;101380.59;;;9.04;74.24
22241;BME280;11289;52.524;13.694;2023-04-21T01:57:48;101381.94;;;9.07;74.41
22241;BME280;11289;52.524;13.694;2023-04-21T02:00:19;101380.38;;;9.01;74.45
22241;BME280;11289;52.524;13.694;2023-04-21T02:02:48;101370.66;;;9.03;74.21
22241;BME280;11289;52.524;13.694;2023-04-21T02:05:32;101363.31;;;8.94;74.25
22241;BME280;11289;52.524;13.694;2023-04-21T02:08:16;101361.97;;;8.91;73.93
22241;BME280;11289;52.524;13.694;2023-04-21T02:10:42;101358.41;;;8.91;73.91
22241;BME280;11289;52.524;13.694;2023-04-21T02:13:08;101364.13;;;8.94;74.10
22241;BME280;11289;52.524;13.694;2023-04-21T02:15:36;101351.56;;;8.83;73.68
22241;BME280;11289;52.524;13.694;2023-04-21T02:18:02;101340.06;;;8.76;74.05
22241;BME280;11289;52.524;13.694;2023-04-21T02:20:28;101350.56;;;8.79;73.88
22241;BME280;11289;52.524;13.694;2023-04-21T02:22:54;101357.94;;;8.83;73.74
22241;BME280;11289;52.524;13.694;2023-04-21T02:25:20;101362.66;;;8.83;74.12
22241;BME280;11289;52.524;13.694;2023-04-21T02:27:46;101351.38;;;8.79;73.80
22241;BME280;11289;52.524;13.694;2023-04-21T02:30:12;101334.09;;;8.68;73.65
22241;BME280;11289;52.524;13.694;2023-04-21T02:32:38;101355.56;;;8.77;73.68
22241;BME280;11289;52.524;13.694;2023-04-21T02:35:04;101357.50;;;8.76;73.54
22241;BME280;11289;52.524;13.694;2023-04-21T02:37:53;101374.56;;;8.83;73.66
22241;BME280;11289;52.524;13.694;2023-04-21T02:40:20;101364.69;;;8.77;73.35
22241;BME280;11289;52.524;13.694;2023-04-21T02:42:47;101357.28;;;8.73;73.44
22241;BME280;11289;52.524;13.694;2023-04-21T02:45:15;101362.75;;;8.78;73.50
22241;BME280;11289;52.524;13.694;2023-04-21T02:47:41;101360.34;;;8.71;73.48
22241;BME280;11289;52.524;13.694;2023-04-21T02:50:08;101346.06;;;8.64;73.35
22241;BME280;11289;52.524;13.694;2023-04-21T02:52:35;101364.75;;;8.72;73.38
22241;BME280;11289;52.524;13.694;2023-04-21T02:55:02;101352.13;;;8.66;73.00
22241;BME280;11289;52.524;13.694;2023-04-21T02:57:28;101342.84;;;8.57;73.19
22241;BME280;11289;52.524;13.694;2023-04-21T02:59:58;101348.06;;;8.58;72.81
22241;BME280;11289;52.524;13.694;2023-04-21T03:02:24;101331.00;;;8.51;72.69
22241;BME280;11289;52.524;13.694;2023-04-21T03:04:50;101329.16;;;8.46;72.78
22241;BME280;11289;52.524;13.694;2023-04-21T03:07:19;101335.22;;;8.48;73.04
22241;BME280;11289;52.524;13.694;2023-04-21T03:09:47;101333.28;;;8.49;72.36
22241;BME280;11289;52.524;13.694;2023-04-21T03:12:13;101346.75;;;8.56;72.86
22241;BME280;11289;52.524;13.694;2023-04-21T03:14:39;101349.22;;;8.57;72.61
22241;BME280;11289;52.524;13.694;2023-04-21T03:17:05;101339.63;;;8.49;72.48
22241;BME280;11289;52.524;13.694;2023-04-21T03:19:31;101327.56;;;8.40;72.58
22241;BME280;11289;52.524;13.694;2023-04-21T03:22:11;101348.16;;;8.53;72.73
22241;BME280;11289;52.524;13.694;2023-04-21T03:24:37;101361.69;;;8.54;72.36
22241;BME280;11289;52.524;13.694;2023-04-21T03:27:04;101335.34;;;8.38;72.55
22241;BME280;11289;52.524;13.694;2023-04-21T03:29:30;101348.22;;;8.48;72.40
22241;BME280;11289;52.524;13.694;2023-04-21T03:32:03;101348.75;;;8.50;72.17
22241;BME280;11289;52.524;13.694;2023-04-21T03:34:36;101346.81;;;8.50;72.13
22241;BME280;11289;52.524;13.694;2023-04-21T03:37:06;101360.13;;;8.48;72.31
22241;BME280;11289;52.524;13.694;2023-04-21T03:39:32;101356.00;;;8.46;72.84
22241;BME280;11289;52.524;13.694;2023-04-21T03:41:58;101338.03;;;8.43;72.47
22241;BME280;11289;52.524;13.694;2023-04-21T03:44:25;101363.50;;;8.45;72.31
22241;BME280;11289;52.524;13.694;2023-04-21T03:46:52;101349.38;;;8.42;72.38
22241;BME280;11289;52.524;13.694;2023-04-21T03:49:19;101352.97;;;8.42;72.27
22241;BME280;11289;52.524;13.694;2023-04-21T03:51:45;101349.69;;;8.40;72.33
22241;BME280;11289;52.524;13.694;2023-04-21T03:54:11;101354.41;;;8.40;72.19
22241;BME280;11289;52.524;13.694;2023-04-21T03:56:37;101358.28;;;8.39;72.48
22241;BME280;11289;52.524;13.694;2023-04-21T03:59:03;101353.56;;;8.39;72.62
22241;BME280;11289;52.524;13.694;2023-04-21T04:01:31;101349.47;;;8.36;72.49
22241;BME280;11289;52.524;13.694;2023-04-21T04:03:57;101356.13;;;8.35;72.56
22241;BME280;11289;52.524;13.694;2023-04-21T04:06:23;101360.53;;;8.36;72.34
22241;BME280;11289;52.524;13.694;2023-04-21T04:08:48;101355.59;;;8.33;72.63
22241;BME280;11289;52.524;13.694;2023-04-21T04:11:14;101362.25;;;8.32;72.34
22241;BME280;11289;52.524;13.694;2023-04-21T04:13:40;101372.19;;;8.33;72.37
22241;BME280;11289;52.524;13.694;2023-04-21T04:16:06;101360.91;;;8.30;72.71
22241;BME280;11289;52.524;13.694;2023-04-21T04:18:32;101363.16;;;8.28;72.47
22241;BME280;11289;52.524;13.694;2023-04-21T04:21:07;101372.25;;;8.28;72.68
22241;BME280;11289;52.524;13.694;2023-04-21T04:23:33;101367.03;;;8.27;72.40
22241;BME280;11289;52.524;13.694;2023-04-21T04:25:59;101377.25;;;8.26;72.76
22241;BME280;11289;52.524;13.694;2023-04-21T04:28:26;101373.16;;;8.24;72.67
22241;BME280;11289;52.524;13.694;2023-04-21T04:30:52;101370.41;;;8.24;72.84
22241;BME280;11289;52.524;13.694;2023-04-21T04:33:20;101373.97;;;8.24;72.31
22241;BME280;11289;52.524;13.694;2023-04-21T04:35:46;101373.69;;;8.26;72.29
22241;BME280;11289;52.524;13.694;2023-04-21T04:38:12;101368.69;;;8.28;72.52
22241;BME280;11289;52.524;13.694;2023-04-21T04:40:41;101374.78;;;8.25;71.85
22241;BME280;11289;52.524;13.694;2023-04-21T04:43:07;101373.38;;;8.27;72.57
22241;BME280;11289;52.524;13.694;2023-04-21T04:45:35;101371.97;;;8.30;72.18
22241;BME280;11289;52.524;13.694;2023-04-21T04:48:05;101379.16;;;8.31;72.10
22241;BME280;11289;52.524;13.694;2023-04-21T04:50:31;101382.75;;;8.31;71.86
22241;BME280;11289;52.524;13.694;2023-04-21T04:52:57;101387.69;;;8.34;72.19
22241;BME280;11289;52.524;13.694;2023-04-21T04:55:23;101383.78;;;8.35;71.83
22241;BME280;11289;52.524;13.694;2023-04-21T04:57:50;101380.72;;;8.37;72.03
22241;BME280;11289;52.524;13.694;2023-04-21T05:00:16;101395.63;;;8.41;71.50
22241;BME280;11289;52.524;13.694;2023-04-21T05:02:42;101391.72;;;8.42;71.63
22241;BME280;11289;52.524;13.694;2023-04-21T05:05:08;101387.84;;;8.43;71.78
22241;BME280;11289;52.524;13.694;2023-04-21T05:07:35;101397.22;;;8.47;71.34
22241;BME280;11289;52.524;13.694;2023-04-21T05:10:01;101385.03;;;8.48;71.33
22241;BME280;11289;52.524;13.694;2023-04-21T05:12:29;101376.94;;;8.52;71.40
22241;BME280;11289;52.524;13.694;2023-04-21T05:14:57;101381.59;;;8.57;70.86
22241;BME280;11289;52.524;13.694;2023-04-21T05:17:23;101385.72;;;8.59;71.30
22241;BME280;11289;52.524;13.694;2023-04-21T05:19:49;101387.56;;;8.64;71.03
22241;BME280;11289;52.524;13.694;2023-04-21T05:22:15;101386.97;;;8.67;70.54
22241;BME280;11289;52.524;13.694;2023-04-21T05:24:41;101380.88;;;8.70;70.83
22241;BME280;11289;52.524;13.694;2023-04-21T05:27:07;101378.31;;;8.74;70.22
22241;BME280;11289;52.524;13.694;2023-04-21T05:29:33;101384.59;;;8.79;70.29
22241;BME280;11289;52.524;13.694;2023-04-21T05:31:59;101388.09;;;8.85;70.32
22241;BME280;11289;52.524;13.694;2023-04-21T05:34:26;101384.94;;;8.92;69.82
22241;BME280;11289;52.524;13.694;2023-04-21T05:36:52;101387.94;;;8.95;69.70
22241;BME280;11289;52.524;13.694;2023-04-21T05:39:18;101383.75;;;8.98;69.69
22241;BME280;11289;52.524;13.694;2023-04-21T05:41:43;101383.34;;;9.04;69.16
22241;BME280;11289;52.524;13.694;2023-04-21T05:44:09;101385.44;;;9.13;69.36
22241;BME280;11289;52.524;13.694;2023-04-21T05:46:35;101392.84;;;9.17;68.85
22241;BME280;11289;52.524;13.694;2023-04-21T05:49:01;101385.06;;;9.19;68.32
22241;BME280;11289;52.524;13.694;2023-04-21T05:51:27;101380.16;;;9.30;68.43
22241;BME280;11289;52.524;13.694;2023-04-21T05:53:53;101377.91;;;9.32;67.94
22241;BME280;11289;52.524;13.694;2023-04-21T05:56:19;101384.72;;;9.40;67.88
22241;BME280;11289;52.524;13.694;2023-04-21T05:58:46;101376.00;;;9.47;68.55
22241;BME280;11289;52.524;13.694;2023-04-21T06:01:12;101384.84;;;9.63;68.13
22241;BME280;11289;52.524;13.694;2023-04-21T06:03:38;101366.28;;;9.77;67.18
22241;BME280;11289;52.524;13.694;2023-04-21T06:06:05;101369.25;;;9.94;66.66
22241;BME280;11289;52.524;13.694;2023-04-21T06:08:31;101370.50;;;10.16;65.96
22241;BME280;11289;52.524;13.694;2023-04-21T06:10:57;101372.34;;;10.35;65.72
22241;BME280;11289;52.524;13.694;2023-04-21T06:13:23;101364.72;;;10.54;64.27
22241;BME280;11289;52.524;13.694;2023-04-21T06:15:52;101359.00;;;10.73;63.59
22241;BME280;11289;52.524;13.694;2023-04-21T06:18:18;101374.22;;;10.98;62.71
22241;BME280;11289;52.524;13.694;2023-04-21T06:20:51;101364.75;;;11.22;62.41
22241;BME280;11289;52.524;13.694;2023-04-21T06:23:17;101358.38;;;11.44;62.38
22241;BME280;11289;52.524;13.694;2023-04-21T06:25:43;101372.25;;;11.76;61.31
22241;BME280;11289;52.524;13.694;2023-04-21T06:28:10;101365.94;;;11.93;59.09
22241;BME280;11289;52.524;13.694;2023-04-21T06:30:36;101362.56;;;12.05;59.74
22241;BME280;11289;52.524;13.694;2023-04-21T06:33:02;101359.50;;;12.24;58.89
22241;BME280;11289;52.524;13.694;2023-04-21T06:35:29;101368.56;;;12.47;58.83
22241;BME280;11289;52.524;13.694;2023-04-21T06:37:55;101360.06;;;12.69;57.13
22241;BME280;11289;52.524;13.694;2023-04-21T06:40:21;101354.50;;;12.78;57.88
22241;BME280;11289;52.524;13.694;2023-04-21T06:42:47;101361.03;;;13.00;56.21
22241;BME280;11289;52.524;13.694;2023-04-21T06:45:13;101355.28;;;13.14;56.75
22241;BME280;11289;52.524;13.694;2023-04-21T06:47:39;101360.34;;;13.38;55.63
22241;BME280;11289;52.524;13.694;2023-04-21T06:50:06;101359.00;;;13.44;55.34
22241;BME280;11289;52.524;13.694;2023-04-21T06:52:32;101350.91;;;13.60;54.38
22241;BME280;11289;52.524;13.694;2023-04-21T06:54:58;101350.56;;;13.70;54.56
22241;BME280;11289;52.524;13.694;2023-04-21T06:57:24;101358.69;;;13.93;54.82
22241;BME280;11289;52.524;13.694;2023-04-21T06:59:49;101349.81;;;13.91;53.53
22241;BME280;11289;52.524;13.694;2023-04-21T07:02:16;101358.91;;;14.09;53.98
22241;BME280;11289;52.524;13.694;2023-04-21T07:04:41;101346.22;;;14.20;52.78
22241;BME280;11289;52.524;13.694;2023-04-21T07:07:07;101353.94;;;14.44;52.91
22241;BME280;11289;52.524;13.694;2023-04-21T07:09:33;101348.84;;;14.68;52.54
22241;BME280;11289;52.524;13.694;2023-04-21T07:11:59;101348.44;;;14.78;51.39
22241;BME280;11289;52.524;13.694;2023-04-21T07:14:25;101356.28;;;14.85;51.52
22241;BME280;11289;52.524;13.694;2023-04-21T07:16:51;101347.91;;;14.85;50.86
22241;BME280;11289;52.524;13.694;2023-04-21T07:19:17;101353.75;;;14.92;49.81
22241;BME280;11289;52.524;13.694;2023-04-21T07:21:43;101344.00;;;14.98;49.51
22241;BME280;11289;52.524;13.694;2023-04-21T07:24:09;101352.56;;;15.14;50.61
22241;BME280;11289;52.524;13.694;2023-04-21T07:26:35;101342.94;;;15.36;49.23
22241;BME280;11289;52.524;13.694;2023-04-21T07:29:01;101353.22;;;15.44;49.26
22241;BME280;11289;52.524;13.694;2023-04-21T07:31:27;101345.19;;;15.55;48.87
22241;BME280;11289;52.524;13.694;2023-04-21T07:33:53;101351.28;;;15.57;49.27
22241;BME280;11289;52.524;13.694;2023-04-21T07:36:19;101341.66;;;15.79;49.74
22241;BME280;11289;52.524;13.694;2023-04-21T07:38:45;101353.44;;;16.10;48.20
22241;BME280;11289;52.524;13.694;2023-04-21T07:41:12;101343.03;;;15.86;48.55
22241;BME280;11289;52.524;13.694;2023-04-21T07:43:39;101352.16;;;16.07;48.47
22241;BME280;11289;52.524;13.694;2023-04-21T07:46:05;101349.34;;;16.19;48.66
22241;BME280;11289;52.524;13.694;2023-04-21T07:48:31;101342.88;;;16.44;47.73
22241;BME280;11289;52.524;13.694;2023-04-21T07:50:57;101347.41;;;16.61;46.78
22241;BME280;11289;52.524;13.694;2023-04-21T07:53:25;101340.56;;;16.74;46.12
22241;BME280;11289;52.524;13.694;2023-04-21T07:55:52;101348.13;;;16.98;46.40
22241;BME280;11289;52.524;13.694;2023-04-21T07:58:19;101347.88;;;17.03;45.18
22241;BME280;11289;52.524;13.694;2023-04-21T08:00:45;101345.81;;;17.16;46.00
22241;BME280;11289;52.524;13.694;2023-04-21T08:03:11;101343.66;;;17.26;43.70
22241;BME280;11289;52.524;13.694;2023-04-21T08:05:37;101339.97;;;17.37;45.15
22241;BME280;11289;52.524;13.694;2023-04-21T08:08:03;101339.63;;;17.55;44.20
22241;BME280;11289;52.524;13.694;2023-04-21T08:10:30;101334.47;;;17.73;44.02
22241;BME280;11289;52.524;13.694;2023-04-21T08:12:56;101333.03;;;17.79;44.70
22241;BME280;11289;52.524;13.694;2023-04-21T08:15:22;101328.59;;;17.94;44.82
22241;BME280;11289;52.524;13.694;2023-04-21T08:17:48;101340.34;;;18.16;43.04
22241;BME280;11289;52.524;13.694;2023-04-21T08:20:14;101335.63;;;18.20;42.76
22241;BME280;11289;52.524;13.694;2023-04-21T08:22:40;101339.25;;;18.20;43.39
22241;BME280;11289;52.524;13.694;2023-04-21T08:25:06;101328.28;;;18.51;41.42
22241;BME280;11289;52.524;13.694;2023-04-21T08:27:33;101329.50;;;18.69;41.57
22241;BME280;11289;52.524;13.694;2023-04-21T08:29:59;101327.63;;;18.77;41.78
22241;BME280;11289;52.524;13.694;2023-04-21T08:32:25;101329.28;;;18.78;42.01
22241;BME280;11289;52.524;13.694;2023-04-21T08:34:53;101325.91;;;18.88;42.81
22241;BME280;11289;52.524;13.694;2023-04-21T08:37:19;101328.44;;;19.17;42.32
22241;BME280;11289;52.524;13.694;2023-04-21T08:39:47;101316.81;;;19.18;41.96
22241;BME280;11289;52.524;13.694;2023-04-21T08:42:18;101323.66;;;19.40;40.73
22241;BME280;11289;52.524;13.694;2023-04-21T08:44:44;101325.50;;;19.52;41.10
22241;BME280;11289;52.524;13.694;2023-04-21T08:47:11;101318.38;;;19.62;39.97
22241;BME280;11289;52.524;13.694;2023-04-21T08:49:39;101318.09;;;19.67;39.74
22241;BME280;11289;52.524;13.694;2023-04-21T08:52:06;101320.59;;;19.49;39.38
22241;BME280;11289;52.524;13.694;2023-04-21T08:54:32;101317.16;;;19.59;39.31
22241;BME280;11289;52.524;13.694;2023-04-21T08:56:59;101315.44;;;19.78;40.48
22241;BME280;11289;52.524;13.694;2023-04-21T08:59:25;101319.63;;;19.84;40.76
22241;BME280;11289;52.524;13.694;2023-04-21T09:02:14;101323.47;;;19.76;40.13
22241;BME280;11289;52.524;13.694;2023-04-21T09:04:42;101322.09;;;19.89;39.53
22241;BME280;11289;52.524;13.694;2023-04-21T09:07:09;101320.22;;;20.24;40.50
22241;BME280;11289;52.524;13.694;2023-04-21T09:09:55;101322.19;;;20.50;40.32
22241;BME280;11289;52.524;13.694;2023-04-21T09:12:21;101325.34;;;20.45;40.09
22241;BME280;11289;52.524;13.694;2023-04-21T09:14:47;101323.47;;;20.56;39.96
22241;BME280;11289;52.524;13.694;2023-04-21T09:17:19;101324.06;;;20.69;38.71
22241;BME280;11289;52.524;13.694;2023-04-21T09:19:45;101325.78;;;20.77;39.26
22241;BME280;11289;52.524;13.694;2023-04-21T09:22:17;101318.13;;;21.12;37.68
22241;BME280;11289;52.524;13.694;2023-04-21T09:24:45;101312.91;;;21.14;37.48
22241;BME280;11289;52.524;13.694;2023-04-21T09:27:11;101308.66;;;21.34;36.82
22241;BME280;11289;52.524;13.694;2023-04-21T09:29:37;101317.22;;;21.42;37.30
22241;BME280;11289;52.524;13.694;2023-04-21T09:32:03;101309.56;;;21.42;36.73
22241;BME280;11289;52.524;13.694;2023-04-21T09:34:29;101317.59;;;21.40;38.79
22241;BME280;11289;52.524;13.694;2023-04-21T09:36:59;101305.84;;;21.76;35.51
22241;BME280;11289;52.524;13.694;2023-04-21T09:39:30;101316.03;;;21.87;34.66
22241;BME280;11289;52.524;13.694;2023-04-21T09:41:56;101301.97;;;21.95;35.25
22241;BME280;11289;52.524;13.694;2023-04-21T09:44:27;101299.88;;;21.84;34.67
22241;BME280;11289;52.524;13.694;2023-04-21T09:47:00;101300.72;;;21.92;34.87
22241;BME280;11289;52.524;13.694;2023-04-21T09:49:30;101304.47;;;22.11;34.82
22241;BME280;11289;52.524;13.694;2023-04-21T09:51:58;101292.94;;;21.78;34.17
22241;BME280;11289;52.524;13.694;2023-04-21T09:54:29;101293.03;;;21.89;34.63
22241;BME280;11289;52.524;13.694;2023-04-21T09:57:02;101286.00;;;21.68;34.82
22241;BME280;11289;52.524;13.694;2023-04-21T09:59:35;101292.97;;;21.85;35.43
22241;BME280;11289;52.524;13.694;2023-04-21T10:02:06;101293.97;;;22.07;34.19
22241;BME280;11289;52.524;13.694;2023-04-21T10:04:33;101288.78;;;22.20;35.32
22241;BME280;11289;52.524;13.694;2023-04-21T10:07:00;101289.72;;;22.35;35.13
22241;BME280;11289;52.524;13.694;2023-04-21T10:09:33;101286.94;;;22.53;34.98
22241;BME280;11289;52.524;13.694;2023-04-21T10:12:01;101285.47;;;22.85;33.14
22241;BME280;11289;52.524;13.694;2023-04-21T10:14:28;101281.72;;;22.59;33.37
22241;BME280;11289;52.524;13.694;2023-04-21T10:17:04;101281.22;;;22.39;33.76
22241;BME280;11289;52.524;13.694;2023-04-21T10:19:30;101287.75;;;22.54;33.80
22241;BME280;11289;52.524;13.694;2023-04-21T10:22:08;101280.56;;;22.67;32.84
22241;BME280;11289;52.524;13.694;2023-04-21T10:24:41;101277.72;;;22.71;32.07
22241;BME280;11289;52.524;13.694;2023-04-21T10:27:11;101275.78;;;22.97;33.22
22241;BME280;11289;52.524;13.694;2023-04-21T10:29:37;101282.28;;;23.08;33.02
22241;BME280;11289;52.524;13.694;2023-04-21T10:32:04;101273.84;;;23.19;31.13
22241;BME280;11289;52.524;13.694;2023-04-21T10:34:34;101283.16;;;23.12;31.67
22241;BME280;11289;52.524;13.694;2023-04-21T10:39:28;101281.81;;;22.81;30.55
22241;BME280;11289;52.524;13.694;2023-04-21T10:41:55;101265.31;;;23.11;32.49
22241;BME280;11289;52.524;13.694;2023-04-21T10:44:23;101259.28;;;23.31;31.89
22241;BME280;11289;52.524;13.694;2023-04-21T10:46:51;101260.91;;;23.43;31.05
22241;BME280;11289;52.524;13.694;2023-04-21T10:49:28;101250.78;;;23.63;31.70
22241;BME280;11289;52.524;13.694;2023-04-21T10:54:24;101260.88;;;23.75;31.28
22241;BME280;11289;52.524;13.694;2023-04-21T10:56:54;101256.03;;;23.65;31.54
22241;BME280;11289;52.524;13.694;2023-04-21T10:59:21;101250.38;;;23.87;30.80
22241;BME280;11289;52.524;13.694;2023-04-21T11:01:47;101248.31;;;24.09;31.30
22241;BME280;11289;52.524;13.694;2023-04-21T11:04:20;101247.09;;;24.10;30.29
22241;BME280;11289;52.524;13.694;2023-04-21T11:07:05;101248.31;;;24.02;30.60
22241;BME280;11289;52.524;13.694;2023-04-21T11:09:33;101250.00;;;23.63;30.68
22241;BME280;11289;52.524;13.694;2023-04-21T11:12:00;101246.31;;;23.91;31.47
22241;BME280;11289;52.524;13.694;2023-04-21T11:14:27;101236.59;;;23.85;30.71
22241;BME280;11289;52.524;13.694;2023-04-21T11:16:53;101234.19;;;23.76;31.13
22241;BME280;11289;52.524;13.694;2023-04-21T11:19:19;101224.91;;;23.33;30.37
22241;BME280;11289;52.524;13.694;2023-04-21T11:21:49;101235.41;;;23.43;31.00
22241;BME280;11289;52.524;13.694;2023-04-21T11:24:16;101227.31;;;23.56;30.77
22241;BME280;11289;52.524;13.694;2023-04-21T11:26:42;101228.94;;;23.24;31.15
22241;BME280;11289;52.524;13.694;2023-04-21T11:29:09;101226.50;;;23.12;31.80
22241;BME280;11289;52.524;13.694;2023-04-21T11:31:37;101218.81;;;23.52;31.69
22241;BME280;11289;52.524;13.694;2023-04-21T11:34:05;101219.22;;;23.58;31.31
22241;BME280;11289;52.524;13.694;2023-04-21T11:36:42;101223.66;;;23.88;30.39
22241;BME280;11289;52.524;13.694;2023-04-21T11:39:13;101217.06;;;24.23;30.11
22241;BME280;11289;52.524;13.694;2023-04-21T11:41:41;101213.00;;;24.24;30.06
22241;BME280;11289;52.524;13.694;2023-04-21T11:44:09;101220.00;;;23.69;30.44
22241;BME280;11289;52.524;13.694;2023-04-21T11:46:35;101201.38;;;23.61;30.50
22241;BME280;11289;52.524;13.694;2023-04-21T11:49:03;101200.19;;;23.69;31.40
22241;BME280;11289;52.524;13.694;2023-04-21T11:51:39;101201.41;;;23.64;30.08
22241;BME280;11289;52.524;13.694;2023-04-21T11:54:08;101194.88;;;23.78;29.68
22241;BME280;11289;52.524;13.694;2023-04-21T11:56:54;101198.09;;;24.02;28.88
22241;BME280;11289;52.524;13.694;2023-04-21T11:59:21;101198.03;;;24.16;29.27
22241;BME280;11289;52.524;13.694;2023-04-21T12:01:52;101194.00;;;24.14;28.64
22241;BME280;11289;52.524;13.694;2023-04-21T12:04:21;101188.69;;;24.27;29.30
22241;BME280;11289;52.524;13.694;2023-04-21T12:06:59;101190.34;;;24.13;27.94
22241;BME280;11289;52.524;13.694;2023-04-21T12:09:26;101183.53;;;23.86;29.46
22241;BME280;11289;52.524;13.694;2023-04-21T12:11:53;101173.00;;;23.82;28.75
22241;BME280;11289;52.524;13.694;2023-04-21T12:14:22;101177.03;;;24.03;29.78
22241;BME280;11289;52.524;13.694;2023-04-21T12:16:53;101177.84;;;24.04;28.96
22241;BME280;11289;52.524;13.694;2023-04-21T12:19:38;101172.44;;;24.31;30.42
22241;BME280;11289;52.524;13.694;2023-04-21T12:22:15;101179.25;;;24.48;29.19
22241;BME280;11289;52.524;13.694;2023-04-21T12:24:43;101175.41;;;24.02;28.12
22241;BME280;11289;52.524;13.694;2023-04-21T12:27:10;101163.94;;;24.31;28.45
22241;BME280;11289;52.524;13.694;2023-04-21T12:29:36;101163.94;;;24.31;28.19
22241;BME280;11289;52.524;13.694;2023-04-21T12:32:07;101159.50;;;24.26;27.69
22241;BME280;11289;52.524;13.694;2023-04-21T12:34:33;101155.97;;;23.97;27.86
22241;BME280;11289;52.524;13.694;2023-04-21T12:37:00;101160.00;;;24.03;27.52
22241;BME280;11289;52.524;13.694;2023-04-21T12:39:26;101151.13;;;23.94;28.52
22241;BME280;11289;52.524;13.694;2023-04-21T12:41:52;101140.91;;;24.18;28.25
22241;BME280;11289;52.524;13.694;2023-04-21T12:44:18;101150.66;;;24.10;28.95
22241;BME280;11289;52.524;13.694;2023-04-21T12:46:44;101149.53;;;23.89;28.03
22241;BME280;11289;52.524;13.694;2023-04-21T12:49:13;101134.94;;;23.91;27.79
22241;BME280;11289;52.524;13.694;2023-04-21T12:51:40;101135.75;;;23.91;28.11